createdAt,value
2017-07-10T00:00:45.346Z,11.43
2017-07-10T00:03:13.602Z,12.30
2017-07-10T00:05:40.975Z,11.43
2017-07-10T00:08:08.396Z,11.97
2017-07-10T00:10:35.913Z,11.60
2017-07-10T00:13:03.250Z,11.80
2017-07-10T00:15:30.660Z,11.13
2017-07-10T00:17:58.074Z,11.23
2017-07-10T00:20:25.505Z,11.10
2017-07-10T00:22:52.910Z,11.97
2017-07-10T00:25:20.302Z,11.43
2017-07-10T00:27:48.546Z,10.80
2017-07-10T00:30:15.951Z,12.03
2017-07-10T00:32:43.366Z,11.53
2017-07-10T00:35:10.770Z,10.50
2017-07-10T00:37:38.134Z,11.40
2017-07-10T00:40:05.510Z,11.80
2017-07-10T00:42:32.891Z,10.33
2017-07-10T00:45:00.402Z,11.30
2017-07-10T00:47:27.772Z,10.90
2017-07-10T00:49:55.137Z,11.80
2017-07-10T00:52:22.599Z,11.20
2017-07-10T00:54:50.095Z,12.13
2017-07-10T00:57:17.487Z,11.70
2017-07-10T00:59:44.876Z,12.20
2017-07-10T01:02:12.318Z,10.90
2017-07-10T01:04:39.652Z,10.73
2017-07-10T01:07:06.986Z,11.10
2017-07-10T01:09:34.361Z,10.90
2017-07-10T01:12:01.897Z,10.93
2017-07-10T01:14:29.297Z,11.27
2017-07-10T01:16:56.710Z,12.17
2017-07-10T01:19:24.172Z,10.27
2017-07-10T01:21:51.501Z,11.37
2017-07-10T01:24:18.892Z,10.50
2017-07-10T01:26:46.244Z,10.93
2017-07-10T01:29:13.635Z,11.40
2017-07-10T01:31:41.025Z,11.70
2017-07-10T01:34:08.459Z,12.40
2017-07-10T01:36:35.869Z,11.83
2017-07-10T01:39:03.307Z,12.50
2017-07-10T01:41:30.666Z,13.43
2017-07-10T01:43:58.091Z,12.60
2017-07-10T01:46:25.478Z,13.17
2017-07-10T01:48:52.842Z,13.80
2017-07-10T01:51:20.220Z,13.40
2017-07-10T01:53:48.726Z,13.03
2017-07-10T01:56:16.121Z,13.43
2017-07-10T01:58:43.471Z,13.20
2017-07-10T02:01:10.915Z,12.63
2017-07-10T02:03:38.258Z,12.50
2017-07-10T02:06:05.613Z,11.63
2017-07-10T02:08:32.987Z,11.03
2017-07-10T02:11:00.329Z,11.27
2017-07-10T02:13:27.758Z,11.23
2017-07-10T02:15:55.170Z,11.90
2017-07-10T02:18:22.579Z,10.63
2017-07-10T02:20:49.926Z,11.30
2017-07-10T02:23:17.418Z,11.37
2017-07-10T02:25:44.802Z,10.00
2017-07-10T02:28:12.155Z,11.20
2017-07-10T02:30:39.534Z,11.37
2017-07-10T02:33:06.975Z,11.70
2017-07-10T02:35:34.318Z,10.60
2017-07-10T02:38:01.701Z,10.60
2017-07-10T02:40:29.099Z,10.67
2017-07-10T02:42:56.429Z,10.60
2017-07-10T02:45:23.913Z,10.27
2017-07-10T02:47:51.277Z,11.50
2017-07-10T02:50:18.619Z,11.80
2017-07-10T02:52:46.143Z,10.27
2017-07-10T02:55:13.489Z,11.90
2017-07-10T02:57:40.820Z,11.13
2017-07-10T03:00:08.287Z,22.90
2017-07-10T03:02:35.767Z,27.10
2017-07-10T03:05:03.122Z,14.57
2017-07-10T03:07:30.538Z,13.07
2017-07-10T03:09:57.863Z,11.77
2017-07-10T03:12:25.189Z,11.90
2017-07-10T03:14:52.687Z,11.80
2017-07-10T03:17:20.040Z,11.40
2017-07-10T03:19:47.419Z,12.30
2017-07-10T03:22:14.821Z,12.50
2017-07-10T03:24:42.206Z,12.27
2017-07-10T03:27:09.532Z,11.83
2017-07-10T03:29:36.938Z,11.97
2017-07-10T03:32:04.299Z,11.37
2017-07-10T03:34:31.626Z,12.17
2017-07-10T03:36:59.006Z,12.20
2017-07-10T03:39:26.862Z,10.60
2017-07-10T03:41:54.183Z,10.70
2017-07-10T03:44:21.549Z,11.83
2017-07-10T03:46:48.923Z,11.60
2017-07-10T03:49:16.283Z,11.47
2017-07-10T03:51:43.666Z,11.20
2017-07-10T03:54:11.018Z,10.67
2017-07-10T03:56:38.472Z,11.33
2017-07-10T03:59:06.182Z,10.57
2017-07-10T04:01:33.535Z,10.03
2017-07-10T04:04:00.854Z,10.33
2017-07-10T04:06:28.343Z,9.63
2017-07-10T04:08:55.691Z,9.87
2017-07-10T04:11:23.366Z,10.93
2017-07-10T04:13:50.810Z,11.23
2017-07-10T04:16:19.302Z,10.17
2017-07-10T04:18:46.687Z,10.43
2017-07-10T04:21:14.096Z,10.13
2017-07-10T04:23:41.464Z,10.13
2017-07-10T04:26:08.794Z,9.57
2017-07-10T04:28:36.182Z,9.40
2017-07-10T04:31:03.523Z,11.10
2017-07-10T04:33:30.870Z,11.40
2017-07-10T04:35:58.249Z,11.00
2017-07-10T04:38:25.561Z,10.77
2017-07-10T04:40:53.627Z,10.33
2017-07-10T04:43:20.974Z,11.40
2017-07-10T04:45:48.339Z,10.87
2017-07-10T04:48:15.679Z,10.73
2017-07-10T04:50:43.058Z,10.20
2017-07-10T04:53:10.532Z,12.43
2017-07-10T04:55:37.871Z,12.17
2017-07-10T04:58:05.338Z,12.20
2017-07-10T05:00:32.665Z,12.70
2017-07-10T05:03:00.107Z,12.90
2017-07-10T05:05:27.525Z,13.73
2017-07-10T05:07:54.851Z,13.17
2017-07-10T05:10:22.181Z,11.90
2017-07-10T05:12:49.556Z,13.20
2017-07-10T05:15:17.085Z,12.30
2017-07-10T05:17:44.417Z,12.33
2017-07-10T05:20:11.809Z,13.53
2017-07-10T05:22:39.189Z,13.10
2017-07-10T05:25:07.438Z,11.67
2017-07-10T05:27:34.815Z,12.50
2017-07-10T05:30:02.170Z,12.20
2017-07-10T05:32:30.253Z,12.40
2017-07-10T05:34:57.726Z,11.60
2017-07-10T05:37:25.045Z,13.60
2017-07-10T05:39:52.513Z,12.80
2017-07-10T05:42:19.900Z,12.60
2017-07-10T05:44:47.242Z,11.50
2017-07-10T05:47:14.585Z,12.13
2017-07-10T05:49:42.784Z,11.93
2017-07-10T05:52:10.143Z,11.70
2017-07-10T05:54:37.507Z,11.67
2017-07-10T05:57:04.876Z,11.57
2017-07-10T05:59:32.262Z,11.90
2017-07-10T06:01:59.612Z,12.07
2017-07-10T06:04:27.047Z,12.47
2017-07-10T06:06:54.538Z,13.00
2017-07-10T06:09:21.926Z,12.27
2017-07-10T06:11:49.269Z,11.97
2017-07-10T06:14:16.647Z,11.50
2017-07-10T06:16:43.965Z,11.43
2017-07-10T06:19:11.403Z,11.70
2017-07-10T06:21:38.724Z,11.90
2017-07-10T06:24:06.175Z,11.17
2017-07-10T06:26:33.526Z,11.77
2017-07-10T06:29:00.901Z,10.93
2017-07-10T06:31:28.313Z,11.10
2017-07-10T06:33:55.722Z,10.70
2017-07-10T06:36:23.125Z,10.47
2017-07-10T06:38:50.546Z,12.17
2017-07-10T06:41:18.693Z,11.17
2017-07-10T06:43:46.109Z,10.50
2017-07-10T06:46:13.426Z,10.63
2017-07-10T06:48:40.777Z,11.30
2017-07-10T06:51:08.136Z,10.90
2017-07-10T06:53:35.597Z,11.87
2017-07-10T06:56:02.954Z,10.70
2017-07-10T06:58:30.359Z,11.07
2017-07-10T07:00:57.735Z,10.90
2017-07-10T07:03:25.207Z,10.97
2017-07-10T07:05:52.539Z,11.43
2017-07-10T07:08:19.869Z,11.57
2017-07-10T07:10:47.241Z,11.93
2017-07-10T07:13:14.639Z,11.87
2017-07-10T07:15:42.060Z,12.10
2017-07-10T07:18:09.742Z,10.80
2017-07-10T07:20:37.067Z,11.83
2017-07-10T07:23:04.381Z,10.23
2017-07-10T07:25:31.916Z,10.80
2017-07-10T07:27:59.235Z,9.90
2017-07-10T07:30:26.594Z,10.10
2017-07-10T07:32:53.978Z,10.67
2017-07-10T07:35:21.358Z,10.90
2017-07-10T07:37:48.665Z,9.07
2017-07-10T07:40:16.074Z,9.73
2017-07-10T07:42:43.458Z,9.30
2017-07-10T07:45:10.809Z,8.47
2017-07-10T07:47:38.201Z,8.93
2017-07-10T07:50:05.511Z,10.03
2017-07-10T07:52:32.866Z,9.53
2017-07-10T07:55:01.003Z,8.83
2017-07-10T07:57:28.309Z,9.67
2017-07-10T07:59:55.641Z,8.90
2017-07-10T08:02:23.037Z,8.70
2017-07-10T08:04:50.379Z,9.07
2017-07-10T08:07:17.707Z,9.00
2017-07-10T08:09:45.060Z,8.47
2017-07-10T08:12:12.415Z,12.27
2017-07-10T08:14:39.765Z,8.60
2017-07-10T08:17:07.359Z,9.50
2017-07-10T08:19:34.731Z,8.93
2017-07-10T08:22:02.037Z,9.33
2017-07-10T08:24:29.466Z,9.23
2017-07-10T08:26:56.784Z,9.50
2017-07-10T08:29:24.094Z,9.40
2017-07-10T08:31:51.453Z,9.30
2017-07-10T08:34:18.831Z,10.17
2017-07-10T08:36:46.125Z,9.00
2017-07-10T08:39:13.530Z,10.27
2017-07-10T08:41:40.953Z,10.23
2017-07-10T08:44:08.262Z,9.07
2017-07-10T08:46:35.675Z,9.97
2017-07-10T08:49:03.180Z,9.73
2017-07-10T08:51:30.750Z,9.20
2017-07-10T08:53:58.150Z,10.10
2017-07-10T08:56:25.494Z,9.23
2017-07-10T08:58:52.813Z,10.13
2017-07-10T09:01:20.195Z,10.00
2017-07-10T09:03:47.583Z,8.93
2017-07-10T09:06:14.980Z,9.07
2017-07-10T09:08:42.314Z,9.83
2017-07-10T09:11:09.694Z,11.17
2017-07-10T09:13:37.034Z,9.27
2017-07-10T09:16:04.486Z,8.87
2017-07-10T09:18:31.945Z,9.60
2017-07-10T09:20:59.256Z,10.70
2017-07-10T09:23:26.755Z,10.60
2017-07-10T09:25:54.106Z,9.90
2017-07-10T09:28:21.426Z,10.23
2017-07-10T09:30:48.794Z,9.87
2017-07-10T09:33:16.141Z,8.40
2017-07-10T09:35:43.480Z,9.17
2017-07-10T09:38:10.946Z,10.10
2017-07-10T09:40:38.253Z,10.00
2017-07-10T09:43:05.577Z,9.87
2017-07-10T09:45:32.954Z,9.00
2017-07-10T09:48:00.314Z,9.40
2017-07-10T09:50:27.685Z,8.57
2017-07-10T09:52:55.039Z,9.37
2017-07-10T09:55:22.354Z,9.80
2017-07-10T09:57:49.709Z,9.97
2017-07-10T10:00:17.086Z,9.90
2017-07-10T10:02:44.479Z,9.60
2017-07-10T10:05:11.783Z,9.90
2017-07-10T10:07:39.207Z,9.77
2017-07-10T10:10:06.521Z,11.20
2017-07-10T10:12:33.859Z,10.80
2017-07-10T10:15:01.238Z,10.07
2017-07-10T10:17:28.565Z,10.60
2017-07-10T10:19:55.914Z,10.67
2017-07-10T10:22:23.270Z,10.03
2017-07-10T10:24:50.589Z,10.57
2017-07-10T10:27:17.958Z,10.43
2017-07-10T10:29:45.306Z,9.77
2017-07-10T10:32:13.488Z,10.70
2017-07-10T10:34:40.792Z,9.80
2017-07-10T10:37:08.257Z,9.83
2017-07-10T10:39:35.624Z,9.63
2017-07-10T10:42:02.954Z,10.10
2017-07-10T10:44:30.401Z,9.70
2017-07-10T10:46:57.822Z,9.80
2017-07-10T10:49:25.204Z,9.90
2017-07-10T10:51:52.540Z,10.23
2017-07-10T10:54:19.948Z,11.17
2017-07-10T10:56:48.264Z,10.97
2017-07-10T10:59:15.618Z,10.77
2017-07-10T11:01:42.966Z,11.17
2017-07-10T11:04:10.367Z,10.27
2017-07-10T11:06:37.716Z,10.37
2017-07-10T11:09:05.098Z,10.53
2017-07-10T11:11:32.476Z,10.43
2017-07-10T11:13:59.929Z,9.73
2017-07-10T11:16:27.295Z,10.87
2017-07-10T11:18:54.868Z,10.53
2017-07-10T11:21:22.336Z,11.10
2017-07-10T11:23:49.634Z,11.13
2017-07-10T11:26:17.030Z,11.20
2017-07-10T11:28:44.465Z,10.30
2017-07-10T11:31:11.814Z,10.10
2017-07-10T11:33:39.157Z,10.97
2017-07-10T11:36:06.570Z,10.00
2017-07-10T11:38:34.404Z,11.20
2017-07-10T11:41:01.754Z,10.53
2017-07-10T11:43:29.147Z,11.33
2017-07-10T11:45:56.502Z,10.17
2017-07-10T11:48:23.870Z,11.03
2017-07-10T11:50:51.234Z,11.23
2017-07-10T11:53:18.621Z,11.30
2017-07-10T11:55:45.939Z,11.63
2017-07-10T11:58:13.388Z,11.70
2017-07-10T12:00:40.778Z,10.47
2017-07-10T12:03:08.135Z,10.97
2017-07-10T12:05:35.538Z,10.30
2017-07-10T12:08:02.922Z,11.20
2017-07-10T12:10:30.269Z,11.97
2017-07-10T12:12:57.646Z,13.23
2017-07-10T12:15:24.990Z,11.83
2017-07-10T12:17:52.416Z,11.17
2017-07-10T12:20:19.922Z,11.47
2017-07-10T12:22:47.245Z,11.37
2017-07-10T12:25:14.602Z,12.97
2017-07-10T12:27:42.000Z,12.93
2017-07-10T12:30:09.411Z,12.53
2017-07-10T12:32:36.766Z,12.30
2017-07-10T12:35:04.262Z,12.93
2017-07-10T12:37:31.664Z,11.53
2017-07-10T12:39:59.007Z,12.23
2017-07-10T12:42:26.362Z,12.57
2017-07-10T12:44:53.764Z,11.63
2017-07-10T12:47:21.151Z,11.93
2017-07-10T12:49:48.509Z,11.57
2017-07-10T12:52:16.681Z,12.00
2017-07-10T12:54:44.115Z,12.87
2017-07-10T12:57:11.466Z,12.83
2017-07-10T12:59:38.828Z,14.13
2017-07-10T13:02:06.220Z,13.60
2017-07-10T13:04:33.633Z,13.87
2017-07-10T13:07:01.023Z,13.10
2017-07-10T13:09:28.337Z,14.03
2017-07-10T13:11:55.693Z,13.10
2017-07-10T13:14:23.046Z,13.03
2017-07-10T13:16:51.119Z,13.67
2017-07-10T13:19:18.470Z,13.90
2017-07-10T13:21:45.813Z,14.50
2017-07-10T13:24:13.123Z,13.60
2017-07-10T13:26:40.494Z,14.17
2017-07-10T13:29:07.923Z,13.30
2017-07-10T13:31:35.323Z,14.13
2017-07-10T13:34:02.698Z,14.13
2017-07-10T13:36:30.103Z,13.20
2017-07-10T13:38:57.417Z,13.80
2017-07-10T13:41:24.782Z,13.00
2017-07-10T13:43:52.122Z,14.00
2017-07-10T13:46:19.457Z,14.00
2017-07-10T13:48:46.857Z,13.17
2017-07-10T13:51:14.239Z,13.77
2017-07-10T13:53:41.556Z,15.17
2017-07-10T13:56:08.987Z,14.20
2017-07-10T13:58:36.314Z,13.83
2017-07-10T14:01:03.707Z,14.47
2017-07-10T14:03:31.149Z,13.20
2017-07-10T14:05:58.476Z,13.03
2017-07-10T14:08:25.856Z,13.83
2017-07-10T14:10:53.213Z,12.73
2017-07-10T14:13:20.595Z,13.50
2017-07-10T14:15:48.036Z,13.60
2017-07-10T14:18:15.504Z,13.00
2017-07-10T14:20:42.819Z,13.30
2017-07-10T14:23:10.176Z,14.90
2017-07-10T14:25:37.590Z,14.73
2017-07-10T14:28:04.941Z,14.77
2017-07-10T14:30:32.300Z,14.50
2017-07-10T14:32:59.656Z,14.73
2017-07-10T14:35:26.984Z,13.20
2017-07-10T14:37:54.303Z,13.67
2017-07-10T14:40:21.731Z,14.00
2017-07-10T14:42:49.065Z,13.93
2017-07-10T14:45:16.386Z,14.23
2017-07-10T14:47:43.761Z,13.57
2017-07-10T14:50:11.089Z,13.40
2017-07-10T14:52:38.414Z,15.20
2017-07-10T14:55:05.780Z,15.57
2017-07-10T14:57:33.199Z,15.20
2017-07-10T15:00:00.604Z,14.23
2017-07-10T15:02:27.958Z,16.10
2017-07-10T15:04:55.269Z,15.53
2017-07-10T15:07:22.634Z,15.00
2017-07-10T15:09:50.015Z,14.10
2017-07-10T15:12:17.341Z,14.53
2017-07-10T15:14:44.691Z,14.90
2017-07-10T15:17:12.054Z,13.80
2017-07-10T15:19:39.757Z,16.23
2017-07-10T15:22:07.201Z,15.93
2017-07-10T15:24:34.665Z,15.90
2017-07-10T15:27:02.065Z,17.03
2017-07-10T15:29:29.437Z,16.87
2017-07-10T15:31:56.847Z,16.93
2017-07-10T15:34:24.395Z,16.17
2017-07-10T15:36:51.710Z,15.40
2017-07-10T15:39:19.081Z,16.27
2017-07-10T15:41:46.410Z,17.07
2017-07-10T15:44:14.209Z,15.80
2017-07-10T15:46:41.561Z,17.77
2017-07-10T15:49:08.935Z,16.57
2017-07-10T15:51:36.630Z,16.50
2017-07-10T15:54:04.613Z,16.87
2017-07-10T15:56:31.925Z,17.87
2017-07-10T15:58:59.445Z,17.00
2017-07-10T16:01:26.989Z,18.00
2017-07-10T16:03:54.410Z,17.67
2017-07-10T16:06:21.736Z,17.03
2017-07-10T16:08:49.182Z,16.80
2017-07-10T16:11:16.536Z,15.93
2017-07-10T16:13:43.859Z,17.40
2017-07-10T16:16:11.233Z,17.50
2017-07-10T16:18:38.616Z,17.33
2017-07-10T16:21:05.940Z,16.60
2017-07-10T16:23:33.332Z,16.67
2017-07-10T16:26:00.657Z,17.53
2017-07-10T16:28:28.001Z,16.37
2017-07-10T16:30:55.452Z,18.43
2017-07-10T16:33:22.843Z,17.20
2017-07-10T16:35:50.239Z,18.87
2017-07-10T16:38:17.619Z,19.63
2017-07-10T16:40:45.030Z,18.37
2017-07-10T16:43:12.418Z,18.07
2017-07-10T16:45:39.792Z,18.70
2017-07-10T16:48:07.141Z,18.87
2017-07-10T16:50:34.571Z,18.93
2017-07-10T16:53:01.969Z,18.67
2017-07-10T16:55:29.595Z,20.10
2017-07-10T16:57:56.958Z,18.77
2017-07-10T17:00:24.332Z,18.63
2017-07-10T17:02:51.737Z,17.83
2017-07-10T17:05:19.076Z,18.73
2017-07-10T17:07:46.433Z,18.33
2017-07-10T17:10:13.755Z,18.33
2017-07-10T17:12:41.087Z,18.10
2017-07-10T17:15:08.508Z,18.03
2017-07-10T17:17:35.823Z,18.47
2017-07-10T17:20:03.187Z,19.13
2017-07-10T17:22:30.541Z,19.53
2017-07-10T17:24:57.935Z,19.47
2017-07-10T17:27:25.262Z,22.10
2017-07-10T17:29:52.637Z,21.10
2017-07-10T17:32:19.987Z,23.10
2017-07-10T17:34:47.332Z,22.90
2017-07-10T17:37:14.759Z,21.60
2017-07-10T17:39:42.102Z,20.43
2017-07-10T17:42:09.418Z,19.23
2017-07-10T17:44:36.807Z,21.00
2017-07-10T17:47:04.162Z,20.50
2017-07-10T17:49:31.547Z,18.30
2017-07-10T17:51:58.894Z,19.50
2017-07-10T17:54:26.234Z,18.90
2017-07-10T17:56:53.628Z,18.57
2017-07-10T17:59:21.000Z,19.30
2017-07-10T18:01:48.329Z,19.53
2017-07-10T18:04:15.679Z,18.37
2017-07-10T18:06:43.061Z,18.47
2017-07-10T18:09:11.099Z,20.60
2017-07-10T18:11:38.426Z,18.80
2017-07-10T18:14:06.083Z,17.90
2017-07-10T18:16:33.412Z,18.93
2017-07-10T18:19:00.753Z,17.90
2017-07-10T18:21:28.129Z,16.90
2017-07-10T18:23:55.584Z,17.50
2017-07-10T18:26:22.960Z,17.37
2017-07-10T18:28:50.340Z,16.60
2017-07-10T18:31:17.665Z,17.50
2017-07-10T18:33:45.886Z,16.30
2017-07-10T18:36:13.325Z,15.67
2017-07-10T18:38:40.698Z,16.03
2017-07-10T18:41:08.012Z,14.90
2017-07-10T18:43:35.361Z,14.43
2017-07-10T18:46:03.730Z,12.77
2017-07-10T18:48:31.108Z,12.23
2017-07-10T18:50:58.484Z,12.70
2017-07-10T18:53:26.001Z,12.87
2017-07-10T18:55:53.510Z,12.87
2017-07-10T18:58:21.416Z,12.97
2017-07-10T19:00:49.220Z,12.77
2017-07-10T19:03:17.426Z,12.30
2017-07-10T19:05:44.782Z,12.50
2017-07-10T19:08:12.207Z,12.30
2017-07-10T19:10:39.928Z,12.03
2017-07-10T19:13:07.331Z,12.90
2017-07-10T19:15:34.715Z,13.20
2017-07-10T19:18:02.155Z,12.53
2017-07-10T19:20:29.600Z,12.47
2017-07-10T19:22:56.940Z,13.07
2017-07-10T19:25:24.293Z,14.47
2017-07-10T19:27:51.652Z,14.20
2017-07-10T19:30:18.982Z,14.53
2017-07-10T19:32:46.383Z,14.40
2017-07-10T19:35:13.759Z,13.93
2017-07-10T19:37:41.150Z,13.87
2017-07-10T19:40:08.460Z,13.30
2017-07-10T19:42:35.965Z,14.00
2017-07-10T19:45:03.314Z,14.00
2017-07-10T19:47:30.704Z,13.63
2017-07-10T19:49:58.106Z,13.63
2017-07-10T19:52:25.462Z,13.40
2017-07-10T19:54:52.789Z,14.20
2017-07-10T19:57:20.198Z,13.23
2017-07-10T19:59:47.516Z,12.60
2017-07-10T20:02:14.867Z,13.60
2017-07-10T20:04:42.240Z,12.57
2017-07-10T20:07:10.357Z,14.20
2017-07-10T20:09:37.736Z,12.57
2017-07-10T20:12:05.175Z,14.23
2017-07-10T20:14:32.518Z,13.20
2017-07-10T20:16:59.833Z,13.23
2017-07-10T20:19:27.233Z,13.23
2017-07-10T20:21:54.643Z,13.47
2017-07-10T20:24:22.105Z,12.70
2017-07-10T20:26:49.551Z,14.10
2017-07-10T20:29:17.017Z,12.97
2017-07-10T20:31:44.370Z,15.03
2017-07-10T20:34:11.827Z,13.60
2017-07-10T20:36:39.191Z,14.20
2017-07-10T20:39:06.525Z,14.70
2017-07-10T20:41:33.939Z,13.97
2017-07-10T20:44:01.265Z,14.87
2017-07-10T20:46:28.597Z,15.50
2017-07-10T20:48:55.990Z,17.47
2017-07-10T20:51:23.388Z,17.53
2017-07-10T20:53:50.775Z,17.67
2017-07-10T20:56:18.130Z,16.97
2017-07-10T20:58:45.466Z,17.50
2017-07-10T21:01:12.827Z,16.13
2017-07-10T21:03:40.507Z,18.30
2017-07-10T21:06:07.820Z,17.73
2017-07-10T21:08:36.089Z,16.87
2017-07-10T21:11:03.979Z,17.40
2017-07-10T21:13:31.301Z,17.60
2017-07-10T21:15:58.657Z,17.97
2017-07-10T21:18:26.070Z,18.60
2017-07-10T21:20:53.422Z,17.30
2017-07-10T21:23:20.851Z,19.30
2017-07-10T21:25:48.417Z,17.87
2017-07-10T21:28:15.816Z,18.87
2017-07-10T21:30:43.162Z,18.10
2017-07-10T21:33:10.580Z,19.03
2017-07-10T21:35:38.026Z,19.20
2017-07-10T21:38:05.341Z,19.63
2017-07-10T21:40:32.747Z,19.37
2017-07-10T21:43:00.053Z,19.47
2017-07-10T21:45:27.451Z,18.40
2017-07-10T21:47:54.797Z,20.07
2017-07-10T21:50:22.196Z,19.90
2017-07-10T21:52:49.511Z,20.13
2017-07-10T21:55:16.939Z,18.77
2017-07-10T21:57:44.338Z,19.60
2017-07-10T22:00:11.702Z,19.77
2017-07-10T22:02:39.115Z,20.70
2017-07-10T22:05:06.471Z,19.53
2017-07-10T22:07:33.797Z,20.73
2017-07-10T22:10:01.235Z,20.63
2017-07-10T22:12:28.579Z,20.17
2017-07-10T22:14:55.979Z,19.03
2017-07-10T22:17:23.432Z,19.70
2017-07-10T22:19:50.793Z,21.50
2017-07-10T22:22:18.322Z,20.30
2017-07-10T22:24:45.697Z,20.00
2017-07-10T22:27:13.060Z,20.27
2017-07-10T22:29:40.417Z,20.77
2017-07-10T22:32:07.886Z,21.30
2017-07-10T22:34:35.217Z,20.70
2017-07-10T22:37:02.529Z,19.50
2017-07-10T22:39:29.909Z,20.37
2017-07-10T22:41:57.291Z,20.17
2017-07-10T22:44:24.664Z,19.67
2017-07-10T22:46:52.017Z,21.47
2017-07-10T22:49:19.350Z,20.57
2017-07-10T22:51:46.747Z,21.07
2017-07-10T22:54:14.115Z,21.20
2017-07-10T22:56:41.432Z,19.90
2017-07-10T22:59:08.752Z,20.70
2017-07-10T23:01:36.227Z,22.00
2017-07-10T23:04:03.592Z,21.97
2017-07-10T23:06:30.946Z,21.37
2017-07-10T23:08:58.361Z,20.57
2017-07-10T23:11:25.727Z,20.63
2017-07-10T23:13:53.108Z,19.13
2017-07-10T23:16:20.517Z,20.53
2017-07-10T23:18:47.861Z,20.70
2017-07-10T23:21:15.177Z,19.80
2017-07-10T23:23:42.618Z,20.27
2017-07-10T23:26:09.983Z,23.03
2017-07-10T23:28:37.309Z,23.63
2017-07-10T23:31:04.813Z,25.57
2017-07-10T23:33:32.202Z,23.50
2017-07-10T23:35:59.606Z,23.17
2017-07-10T23:38:27.007Z,22.73
2017-07-10T23:40:54.325Z,22.73
2017-07-10T23:43:21.649Z,23.20
2017-07-10T23:45:49.124Z,21.27
2017-07-10T23:48:16.469Z,21.20
2017-07-10T23:50:43.899Z,20.67
2017-07-10T23:53:11.283Z,21.33
2017-07-10T23:55:38.655Z,19.93
2017-07-10T23:58:06.003Z,21.30
